NCAR-RAP Real-Time Weather Data

Output produced by METARs form (20 February 2019  18:36 UTC)
found at http://weather.rap.ucar.edu/surface/
 
KDCA 201831Z 09007KT 5SM RA BR OVC012 01/M02 A3040 RMK AO2 RAB30PLE18 P0002 I1000 T00061022 $
KDCA 201818Z 08006KT 6SM BR BKN013 BKN019 OVC090 01/M02 A3042 RMK AO2 PLE18 P0001 I1000 T00061022 $
KDCA 201802Z 13007KT 4SM -PL BR BKN010 BKN055 OVC095 01/M02 A3041 RMK AO2 I1000 T00061017 PNO $
KDCA 201752Z 12008KT 3SM -PL BKN009 BKN048 OVC070 01/M02 A3041 RMK AO2 PRESFR SLP298 BKN009 V SCT PLB01 4/003 933002 P0014 60052 T00061022 10006 21011 58027
KDCA 201749Z 12009KT 3SM -PL BR BKN009 BKN048 OVC070 00/M02 A3042 RMK AO2 PRESFR BKN009 V SCT PLB01 P0013
KDCA 201743Z 14009KT 2 1/2SM -PL BR BKN009 BKN048 OVC070 00/M02 A3043 RMK AO2 PRESFR PLB01 P0012 T00001022
KDCA 201723Z 11006KT 2SM -PLSN BR SCT009 BKN016 OVC038 00/M02 A3048 RMK AO2 PLB01 P0007 T00001022
KDCA 201714Z 10003KT 1 1/2SM R01/5500VP6000FT -SNPL BR FEW005 BKN016 OVC060 M01/M02 A3049 RMK AO2 PLB01 P0005 T10061022 $
KDCA 201709Z 10005KT 1SM R01/4000VP6000FT -SNPL BR SCT005 BKN011 OVC065 M01/M02 A3048 RMK AO2 PLB01 P0003 T10061022 $
KDCA 201707Z 11005KT 3/4SM R01/3500VP6000FT SNPL BR SCT007 BKN019 OVC065 M01/M02 A3048 RMK AO2 PLB01 P0003 T10061022 $
KDCA 201701Z 08008KT 1/2SM R01/2600V4000FT SNPL BR SCT005 OVC012 M01/M02 A3049 RMK AO2 PLB01 P0002 T10061022 $
KDCA 201652Z 06007KT 1/2SM R01/2600V3500FT SN BR SCT005 OVC012 M01/M02 A3050 RMK AO2 PLE44 SLP327 P0010 T10061022 $
KDCA 201644Z 05007KT 1/2SM R01/3000V4000FT SN BR SCT005 OVC012 M01/M02 A3051 RMK AO2 PLE44 P0009 T10061022 $
KDCA 201621Z 06006KT 3/4SM R01/3500V5000FT -SNPL BR FEW008 OVC014 M01/M03 A3054 RMK AO2 P0005 T10061028
KDCA 201604Z 06006KT 1 1/2SM -SNPL BR FEW008 FEW011 OVC018 M01/M03 A3054 RMK AO2 PRESRR P0001 T10061028
KDCA 201552Z 08009KT 1SM R01/5500VP6000FT -SNPL BR FEW012 OVC020 M01/M03 A3050 RMK AO2 SLP325 PLB44 P0008 T10061028
KDCA 201547Z 08007KT 1SM R01/5500VP6000FT -SNPL BR SCT012 OVC018 M01/M02 A3051 RMK AO2 PLB44 P0007
KDCA 201534Z 08006KT 3/4SM R01/5000VP6000FT -SN BR FEW005 SCT012 OVC018 M01/M03 A3053 RMK AO2 P0005 T10061028
KDCA 201522Z 09008KT 3/4SM R01/4000V5000FT -SN BR SCT005 OVC012 M01/M03 A3052 RMK AO2 P0004 T10061028
KDCA 201504Z 07003KT 1/2SM R01/3000V4000FT SN BR BKN007 OVC014 M01/M02 A3050 RMK AO2 P0001 T10061022
KDCA 201452Z 06005KT 3/4SM R01/4000V4500FT -SN BR FEW005 OVC012 M01/M03 A3052 RMK AO2 SLP333 SNINCR 1/2 P0006 60020 T10061028 58010
KDCA 201352Z 09006KT 1/2SM R01/2800V3500FT SN BR FEW006 SCT009 OVC014 M01/M03 A3054 RMK AO2 SLP340 P0005 T10061028
KDCA 201321Z 09006KT 3/4SM R01/4000V5500FT -SN BR FEW007 FEW011 OVC021 M01/M03 A3054 RMK AO2 P0002 T10061028
KDCA 201313Z 08009KT 3/4SM R01/4500VP6000FT -SN BR FEW010 OVC025 M01/M03 A3054 RMK AO2 P0001 T10061028
KDCA 201252Z 09006KT 1SM R01/5500VP6000FT -SN BR FEW009 OVC021 M01/M02 A3054 RMK AO2 SLP340 P0009 T10061022
KDCA 201248Z 10007KT 3/4SM R01/5000VP6000FT -SN BR FEW009 OVC015 M01/M02 A3053 RMK AO2 P0009
KDCA 201240Z 10008KT 1/2SM R01/3500V5000FT SN BR VV010 M01/M02 A3053 RMK AO2 P0008 T10061022
KDCA 201226Z 10007KT 1/4SM R01/2200V3500FT +SN BR VV007 M01/M02 A3054 RMK AO2 P0007 T10061022
KDCA 201218Z 11007KT 1/4SM R01/2000V2600FT +SN BR VV008 M01/M02 A3052 RMK AO2 P0004 T10061022
KDCA 201152Z 12007KT 3/4SM R01/5000VP6000FT -SN BR FEW009 OVC013 M01/M03 A3055 RMK AO2 SLP343 P0003 60003 70003 T10061028 10028 21006 58004
KDCA 201147Z 13007KT 3/4SM R01/5000VP6000FT -SN BR FEW009 OVC014 M01/M03 A3055 RMK AO2 PRESFR P0003
KDCA 201141Z 15008KT 1SM R01/5000VP6000FT -SN BR FEW009 OVC014 M01/M03 A3057 RMK AO2 P0002 T10061028
KDCA 201138Z 16008KT 1SM R01/5000VP6000FT -SN FEW010 OVC016 00/M03 A3058 RMK AO2 P0001 T00001028
KDCA 201122Z 15006KT 1 1/2SM -SN OVC019 00/M03 A3058 RMK AO2 P0001 T00001033
KDCA 201111Z 17007KT 2SM -SN OVC023 00/M04 A3057 RMK AO2 P0000 T00001039
KDCA 201105Z 16006KT 2 1/2SM -SN OVC027 01/M04 A3056 RMK AO2 P0000 T00061044
KDCA 201101Z 15009KT 2 1/2SM -SN OVC030 01/M06 A3055 RMK AO2 P0000 T00061056
KDCA 201052Z 14003KT 9SM -SN OVC036 02/M08 A3056 RMK AO2 SNB45 SLP348 P0000 T00221083
KDCA 200952Z 12005KT 10SM BKN065 OVC080 02/M08 A3056 RMK AO2 SLP347 T00221083
KDCA 200852Z 11009KT 10SM OVC100 02/M07 A3056 RMK AO2 SLP346 T00221072 58018
KDCA 200752Z 11006KT 10SM OVC120 03/M07 A3057 RMK AO2 SLP353 T00281072
KDCA 200652Z 09005KT 10SM OVC140 03/M08 A3060 RMK AO2 SLP361 T00281083
KDCA 200552Z 14005KT 10SM OVC140 03/M09 A3061 RMK AO2 SLP364 T00281089 10039 20028 50001
KDCA 200452Z 13005KT 10SM OVC160 03/M10 A3061 RMK AO2 SLP365 T00281100 400611017
KDCA 200352Z 12003KT 10SM OVC180 03/M12 A3062 RMK AO2 SLP368 T00331117
KDCA 200252Z 07007KT 10SM OVC200 03/M11 A3061 RMK AO2 SLP363 T00331111 58002
KDCA 200152Z 01003KT 10SM OVC190 03/M12 A3062 RMK AO2 SLP367 T00331122
KDCA 200052Z 34006KT 10SM OVC190 04/M12 A3062 RMK AO2 SLP368 T00391122
KDCA 192352Z 32009KT 10SM OVC230 04/M13 A3061 RMK AO2 SLP366 T00391128 10061 20039 51012
KDCA 192252Z 29006KT 10SM OVC220 04/M13 A3060 RMK AO2 SLP363 T00441128
KDCA 192152Z 30007KT 10SM OVC220 05/M13 A3059 RMK AO2 SLP359 T00501133
KDCA 192052Z 36005KT 10SM FEW150 BKN250 06/M13 A3058 RMK AO2 SLP353 T00561133 56018
KDCA 191952Z 31006KT 10SM FEW150 OVC250 06/M13 A3059 RMK AO2 SLP358 T00561128
KDCA 191852Z 32010KT 10SM FEW160 OVC250 05/M13 A3061 RMK AO2 SLP364 T00501133
KDCA 191752Z 33010KT 10SM OVC250 04/M14 A3063 RMK AO2 SLP372 T00441139 10044 21017 58009
KDCA 191652Z 34010KT 10SM OVC250 04/M13 A3066 RMK AO2 SLP380 T00391133
KDCA 191552Z 35007KT 10SM FEW150 BKN250 03/M13 A3066 RMK AO2 SLP382 T00281128
KDCA 191452Z 33009KT 10SM FEW140 BKN250 02/M12 A3066 RMK AO2 SLP381 T00171122 51019
KDCA 191352Z 35013KT 10SM FEW140 SCT250 00/M12 A3065 RMK AO2 SLP378 T00001117
KDCA 191252Z 34011KT 10SM SCT250 M01/M12 A3064 RMK AO2 SLP374 T10061117
KDCA 191152Z 34009KT 10SM FEW160 BKN250 M01/M12 A3060 RMK AO2 SLP362 T10111117 10022 21011 53028
KDCA 191052Z 34013KT 10SM SCT250 M01/M11 A3058 RMK AO2 SLP353 T10061106
KDCA 190952Z 34012KT 10SM SCT160 00/M09 A3054 RMK AO2 SLP339 T00001094
KDCA 190852Z 33011G19KT 10SM SCT160 01/M08 A3052 RMK AO2 SLP334 T00061083 52023
KDCA 190752Z 35010KT 10SM FEW160 01/M07 A3049 RMK AO2 SLP324 T00061067
KDCA 190652Z 32010KT 10SM FEW160 02/M07 A3048 RMK AO2 SLP320 T00171072
KDCA 190552Z 34013KT 10SM FEW160 02/M07 A3045 RMK AO2 SLP310 T00221067 10061 20022 51030
KDCA 190452Z 33015KT 10SM FEW070 BKN180 03/M07 A3043 RMK AO2 SLP303 T00281067 401110028
KDCA 190352Z 31015KT 10SM SCT055 BKN180 03/M07 A3040 RMK AO2 SLP294 T00331067
KDCA 190252Z 32019G24KT 10SM BKN055 BKN180 04/M07 A3036 RMK AO2 SLP280 T00441067 53031
KDCA 190152Z 33012KT 10SM BKN065 OVC180 05/M05 A3033 RMK AO2 SLP269 T00501050
KDCA 190052Z 33017G23KT 10SM OVC065 06/M05 A3029 RMK AO2 SLP257 T00561050
KDCA 182352Z 30015G23KT 10SM BKN065 OVC180 06/M05 A3027 RMK AO2 SLP249 T00611050 10106 20056 51054
KDCA 182252Z 32015G24KT 10SM OVC060 07/M04 A3021 RMK AO2 PK WND 32028/2219 SLP231 T00671044
KDCA 182152Z 31020G28KT 10SM FEW070 BKN250 08/M05 A3016 RMK AO2 PK WND 30032/2104 SLP214 T00781050
KDCA 182052Z 32020G31KT 10SM FEW050 BKN250 08/M03 A3011 RMK AO2 PK WND 31033/2010 SLP195 T00831033 53034
KDCA 181952Z 32019G27KT 10SM FEW050 BKN250 10/M03 A3006 RMK AO2 PK WND 34030/1927 SLP180 T01001028
KDCA 181852Z 30015G29KT 10SM FEW050 BKN250 09/M03 A3004 RMK AO2 PK WND 32031/1835 SLP172 T00941028
KDCA 181752Z 32021G30KT 10SM SCT048 SCT160 OVC250 11/M01 A3001 RMK AO2 PK WND 34030/1744 SLP161 T01061011 10111 20044 51025
KDCA 181652Z 32013KT 10SM BKN045 BKN160 OVC250 10/01 A3000 RMK AO2 SLP158 T01000006
KDCA 181552Z 31012KT 10SM SCT160 OVC230 08/02 A2998 RMK AO2 SLP152 T00830017
KDCA 181452Z 31009KT 10SM FEW040 BKN160 OVC230 07/02 A2993 RMK AO2 SLP136 T00720022 53030
KDCA 181352Z 25003KT 10SM FEW038 BKN140 BKN250 07/03 A2991 RMK AO2 SLP129 T00670033
KDCA 181252Z 19003KT 10SM SCT040 BKN140 OVC220 05/03 A2986 RMK AO2 SLP111 T00500028
KDCA 181152Z 22003KT 10SM FEW038 OVC130 04/02 A2985 RMK AO2 SLP106 60022 70046 T00440022 10050 20033 53019
KDCA 181052Z COR 00000KT 10SM FEW010 SCT038 OVC130 04/02 A2982 RMK AO2 RAE48 SLP097 P0000 T00440022
KDCA 181041Z 00000KT 10SM -RA SCT010 BKN036 OVC100 04/03 A2981 RMK AO2 P0000 T00440028
KDCA 180952Z 28003KT 10SM -RA OVC010 04/03 A2980 RMK AO2 SLP090 P0004 T00440028
KDCA 180944Z 30005KT 10SM -RA OVC010 04/03 A2981 RMK AO2 P0003 T00440028
KDCA 180926Z 30006KT 9SM -RA OVC008 04/03 A2981 RMK AO2 P0003 T00440028
KDCA 180852Z 24007KT 10SM -RA OVC007 04/03 A2979 RMK AO2 SLP086 P0005 60018 T00440028 56029
KDCA 180822Z 19008KT 9SM -RA OVC007 04/03 A2977 RMK AO2 P0003 T00440028
KDCA 180752Z 20009KT 8SM RA OVC008 04/02 A2980 RMK AO2 SLP089 P0008 T00440022
KDCA 180737Z 20009KT 9SM -RA OVC008 04/02 A2981 RMK AO2 P0005 T00390022
KDCA 180715Z 19007G16KT 8SM RA OVC010 04/02 A2981 RMK AO2 P0002 T00390022
KDCA 180652Z 20012KT 9SM RA OVC008 04/02 A2982 RMK AO2 SLP099 P0005 T00390022